»·PEaware :: DAL113 KSEA-KSLC

DAL113 :: KSEA-KSLC

FLIGHT INFORMATION

Flight Status: Arrived
Operator:
Delta Air Lines
More flights by this operator :: More flights under this callsign
Pilot: Chandler S. (807)
Aircraft: AIRBUS A321
(A321)
More flights by this aircraft type
Origin: KSEA Seattle-Tacoma Intl
United States
Destination: KSLC Salt Lake City Intl
United States
More flights between these airports :: More routes between these airports
Route: SUMMA2 SUMMA WANTA Q154 BYI SKEES5
File this flight plan on PilotEdge
Remarks:
Altitude:
(Current/Filed)
37,000ft
Speed:
(Current/Filed)
400kts
Departed: 19-Oct-20 01:03 PM
Arrived: 19-Oct-20 02:30 PM
Distance/Time
Traveled:
597nm/1:27
Distance/Time
To Go:
Arrived

Flight Plot

Page will automatically refresh every two minutes.

Flight plan parsing failed; only flown route is shown


Map Options




Map Legend


Flown Route
Filed Route
Departure Airport
Arrival Airport
Navaid (VOR, NDB)
Fix

Horizontal Profiles

Position Reports

Time Latitude Longitude Heading Altitude Ground
Speed
19-Oct-20 12:45 47.440567 -122.303391 346 442ft 0kts
19-Oct-20 12:46 47.440567 -122.303391 346 442ft 0kts
19-Oct-20 12:47 47.440567 -122.303391 346 442ft 0kts
19-Oct-20 12:48 47.440567 -122.303391 346 442ft 0kts
19-Oct-20 12:49 47.440567 -122.303391 346 442ft 0kts
19-Oct-20 12:50 47.440567 -122.303391 346 442ft 0kts
19-Oct-20 12:51 47.440567 -122.303391 346 442ft 0kts
19-Oct-20 12:52 47.440567 -122.303391 346 442ft 0kts
19-Oct-20 12:53 47.440212 -122.303059 301 442ft 2kts
19-Oct-20 12:54 47.440142 -122.302486 261 442ft 0kts
19-Oct-20 12:55 47.440142 -122.302486 261 442ft 0kts
19-Oct-20 12:56 47.440097 -122.302853 257 442ft 5kts
19-Oct-20 12:57 47.441639 -122.306360 0 442ft 20kts
19-Oct-20 12:58 47.447950 -122.306295 3 442ft 23kts
19-Oct-20 12:59 47.454808 -122.306295 0 442ft 25kts
19-Oct-20 13:00 47.461722 -122.306210 1 442ft 13kts
19-Oct-20 13:01 47.463579 -122.306373 318 442ft 0kts
19-Oct-20 13:02 47.452361 -122.307757 181 443ft 160kts
19-Oct-20 13:03 47.400742 -122.323100 176 3219ft 179kts
19-Oct-20 13:04 47.339636 -122.315965 183 6115ft 257kts
19-Oct-20 13:05 47.263174 -122.310188 184 9292ft 295kts
19-Oct-20 13:06 47.184856 -122.255654 163 12471ft 331kts
19-Oct-20 13:07 47.093624 -122.214239 169 15718ft 342kts
19-Oct-20 13:08 47.003216 -122.171366 169 18752ft 344kts
19-Oct-20 13:09 46.912814 -122.128189 170 21315ft 345kts
19-Oct-20 13:10 46.820596 -122.084407 169 23030ft 366kts
19-Oct-20 13:11 46.716515 -122.034989 168 24241ft 404kts
19-Oct-20 13:12 46.612847 -121.978343 142 26699ft 405kts
19-Oct-20 13:13 46.557901 -121.839597 116 28361ft 406kts
19-Oct-20 13:14 46.501807 -121.695047 118 29337ft 423kts
19-Oct-20 13:15 46.440156 -121.545211 121 30431ft 436kts
19-Oct-20 13:16 46.375388 -121.395056 121 31517ft 448kts
19-Oct-20 13:17 46.308688 -121.240043 122 32537ft 459kts
19-Oct-20 13:18 46.240659 -121.083134 121 33508ft 467kts
19-Oct-20 13:20 46.170365 -120.922026 121 34294ft 480kts
19-Oct-20 13:21 46.098811 -120.758824 121 35342ft 484kts
19-Oct-20 13:22 46.026021 -120.593786 121 36177ft 490kts
19-Oct-20 13:23 45.951852 -120.426723 121 36744ft 503kts
19-Oct-20 13:24 45.874785 -120.254196 122 36880ft 524kts
19-Oct-20 13:25 45.800898 -120.090383 122 36887ft 543kts
19-Oct-20 13:26 45.717905 -119.906857 122 37244ft 550kts
19-Oct-20 13:27 45.634558 -119.723724 122 37847ft 551kts
19-Oct-20 13:28 45.550773 -119.540755 122 38183ft 557kts
19-Oct-20 13:29 45.465515 -119.355834 122 37285ft 556kts
19-Oct-20 13:30 45.380339 -119.171678 122 37137ft 561kts
19-Oct-20 13:31 45.293897 -118.986501 123 37152ft 561kts
19-Oct-20 13:32 45.207319 -118.802225 123 37160ft 562kts
19-Oct-20 13:33 45.120095 -118.618026 123 37160ft 563kts
19-Oct-20 13:34 45.033109 -118.435296 123 37156ft 557kts
19-Oct-20 13:35 44.943954 -118.259261 128 37154ft 549kts
19-Oct-20 13:35 44.866574 -118.116291 128 37156ft 549kts
19-Oct-20 13:37 44.759360 -117.919213 128 37162ft 549kts
19-Oct-20 13:37 44.682011 -117.777276 128 37162ft 549kts
19-Oct-20 13:39 44.573433 -117.579207 128 37162ft 549kts
19-Oct-20 13:40 44.480444 -117.410663 128 37162ft 549kts
19-Oct-20 13:40 44.402343 -117.269519 128 37165ft 549kts
19-Oct-20 13:42 44.298717 -117.068467 124 37177ft 549kts
19-Oct-20 13:42 44.226987 -116.921254 123 37179ft 552kts
19-Oct-20 13:43 44.140416 -116.745062 123 37178ft 553kts
19-Oct-20 13:44 44.053391 -116.569099 123 37182ft 552kts
19-Oct-20 13:45 43.965992 -116.393448 123 37187ft 552kts
19-Oct-20 13:46 43.878341 -116.218191 124 37189ft 552kts
19-Oct-20 13:47 43.790342 -116.044190 124 37198ft 553kts
19-Oct-20 13:48 43.702286 -115.870316 124 37200ft 552kts
19-Oct-20 13:49 43.613111 -115.697314 126 37199ft 553kts
19-Oct-20 13:50 43.520227 -115.529163 126 37200ft 553kts
19-Oct-20 13:51 43.427331 -115.360783 126 37200ft 552kts
19-Oct-20 13:52 43.334273 -115.192319 127 37199ft 553kts
19-Oct-20 13:53 43.242279 -115.027016 128 37196ft 539kts
19-Oct-20 13:54 43.152108 -114.866175 128 37200ft 530kts
19-Oct-20 13:55 43.062286 -114.706783 128 37194ft 530kts
19-Oct-20 13:56 42.972221 -114.547772 128 37205ft 532kts
19-Oct-20 13:57 42.880851 -114.387495 128 37206ft 536kts
19-Oct-20 13:58 42.788850 -114.227127 129 37207ft 536kts
19-Oct-20 13:59 42.697091 -114.067647 129 37201ft 537kts
19-Oct-20 14:00 42.604870 -113.908232 129 37186ft 536kts
19-Oct-20 14:01 42.503168 -113.761793 137 37181ft 535kts
19-Oct-20 14:02 42.397708 -113.621400 137 35870ft 525kts
19-Oct-20 14:03 42.294566 -113.484079 137 33564ft 528kts
19-Oct-20 14:04 42.191131 -113.347279 138 31223ft 519kts
19-Oct-20 14:05 42.089338 -113.212719 138 28616ft 509kts
19-Oct-20 14:06 41.989563 -113.081822 138 26012ft 496kts
19-Oct-20 14:07 41.892017 -112.954492 138 23611ft 479kts
19-Oct-20 14:08 41.798979 -112.834033 139 21983ft 449kts
19-Oct-20 14:09 41.710868 -112.720034 138 20592ft 438kts
19-Oct-20 14:10 41.623986 -112.608066 138 19186ft 427kts
19-Oct-20 14:11 41.539151 -112.500151 141 17543ft 416kts
19-Oct-20 14:12 41.445244 -112.416722 155 17028ft 404kts
19-Oct-20 14:13 41.346777 -112.347384 155 15432ft 394kts
19-Oct-20 14:14 41.252037 -112.280190 155 13430ft 379kts
19-Oct-20 14:15 41.164446 -112.214411 153 13019ft 358kts
19-Oct-20 14:16 41.079367 -112.152317 161 12364ft 332kts
19-Oct-20 14:17 40.992328 -112.128629 173 11296ft 314kts
19-Oct-20 14:18 40.906789 -112.110489 174 11030ft 313kts
19-Oct-20 14:19 40.820305 -112.099686 177 11011ft 299kts
19-Oct-20 14:20 40.746227 -112.090954 177 11001ft 255kts
19-Oct-20 14:21 40.675574 -112.082707 177 10049ft 254kts
19-Oct-20 14:22 40.605128 -112.074599 177 9999ft 254kts
19-Oct-20 14:23 40.546817 -112.035584 101 9463ft 257kts
19-Oct-20 14:24 40.574022 -111.965887 2 8296ft 225kts
19-Oct-20 14:25 40.631373 -111.975322 350 7033ft 198kts
19-Oct-20 14:26 40.682806 -111.984234 350 6051ft 175kts
19-Oct-20 14:27 40.729817 -111.990194 352 5112ft 168kts
19-Oct-20 14:28 40.774917 -111.995483 355 4295ft 153kts
19-Oct-20 14:29 40.794733 -111.996779 33 4236ft 13kts
19-Oct-20 14:30 40.792985 -111.995428 175 4236ft 16kts
19-Oct-20 14:31 40.791263 -111.989733 84 4236ft 23kts
19-Oct-20 14:32 40.790046 -111.985048 87 4236ft 12kts
19-Oct-20 14:33 40.788553 -111.984243 251 4236ft 0kts
19-Oct-20 14:34 40.788545 -111.984276 251 4236ft 0kts
19-Oct-20 14:35 40.788545 -111.984276 251 4236ft 0kts

Navigation Log

Ident Type
Flight plan parsing failed, navigation log unavailable